sensor_id;sensor_type;location;lat;lon;timestamp;pressure;altitude;pressure_sealevel;temperature;humidity
31092;BME280;67728;53.122;12.776;2023-12-07T00:00:58;100731.81;;;0.08;100.00
31092;BME280;67728;53.122;12.776;2023-12-07T00:02:29;100726.78;;;0.11;100.00
31092;BME280;67728;53.122;12.776;2023-12-07T00:04:01;100734.41;;;0.11;100.00
31092;BME280;67728;53.122;12.776;2023-12-07T00:05:33;100733.59;;;0.11;100.00
31092;BME280;67728;53.122;12.776;2023-12-07T00:07:04;100734.41;;;0.11;100.00
31092;BME280;67728;53.122;12.776;2023-12-07T00:08:35;100730.25;;;0.13;100.00
31092;BME280;67728;53.122;12.776;2023-12-07T00:10:07;100728.63;;;0.17;100.00
31092;BME280;67728;53.122;12.776;2023-12-07T00:11:38;100725.97;;;0.12;100.00
31092;BME280;67728;53.122;12.776;2023-12-07T00:13:09;100731.84;;;0.10;100.00
31092;BME280;67728;53.122;12.776;2023-12-07T00:14:41;100729.28;;;0.10;100.00
31092;BME280;67728;53.122;12.776;2023-12-07T00:16:12;100728.50;;;0.12;100.00
31092;BME280;67728;53.122;12.776;2023-12-07T00:17:43;100732.75;;;0.12;100.00
31092;BME280;67728;53.122;12.776;2023-12-07T00:19:16;100736.06;;;0.09;100.00
31092;BME280;67728;53.122;12.776;2023-12-07T00:20:47;100735.19;;;0.09;100.00
31092;BME280;67728;53.122;12.776;2023-12-07T00:22:18;100741.16;;;0.08;100.00
31092;BME280;67728;53.122;12.776;2023-12-07T00:23:49;100742.84;;;0.09;100.00
31092;BME280;67728;53.122;12.776;2023-12-07T00:25:21;100743.00;;;0.13;100.00
31092;BME280;67728;53.122;12.776;2023-12-07T00:26:52;100748.81;;;0.09;100.00
31092;BME280;67728;53.122;12.776;2023-12-07T00:28:23;100738.88;;;0.18;100.00
31092;BME280;67728;53.122;12.776;2023-12-07T00:29:54;100744.69;;;0.14;100.00
31092;BME280;67728;53.122;12.776;2023-12-07T00:31:26;100740.31;;;0.09;100.00
31092;BME280;67728;53.122;12.776;2023-12-07T00:32:57;100745.38;;;0.07;100.00
31092;BME280;67728;53.122;12.776;2023-12-07T00:34:29;100740.47;;;0.15;100.00
31092;BME280;67728;53.122;12.776;2023-12-07T00:36:01;100746.69;;;0.24;100.00
31092;BME280;67728;53.122;12.776;2023-12-07T00:37:32;100750.72;;;0.16;100.00
31092;BME280;67728;53.122;12.776;2023-12-07T00:39:03;100745.66;;;0.18;100.00
31092;BME280;67728;53.122;12.776;2023-12-07T00:40:34;100750.16;;;0.26;100.00
31092;BME280;67728;53.122;12.776;2023-12-07T00:42:09;100753.91;;;0.09;100.00
31092;BME280;67728;53.122;12.776;2023-12-07T00:43:39;100745.56;;;0.15;100.00
31092;BME280;67728;53.122;12.776;2023-12-07T00:45:11;100749.03;;;0.17;100.00
31092;BME280;67728;53.122;12.776;2023-12-07T00:46:42;100751.84;;;0.27;100.00
31092;BME280;67728;53.122;12.776;2023-12-07T00:48:13;100753.13;;;0.12;100.00
31092;BME280;67728;53.122;12.776;2023-12-07T00:49:46;100753.91;;;0.09;100.00
31092;BME280;67728;53.122;12.776;2023-12-07T00:51:17;100753.13;;;0.12;100.00
31092;BME280;67728;53.122;12.776;2023-12-07T00:52:49;100755.78;;;0.15;100.00
31092;BME280;67728;53.122;12.776;2023-12-07T00:54:20;100753.97;;;0.11;100.00
31092;BME280;67728;53.122;12.776;2023-12-07T00:55:51;100756.75;;;0.20;100.00
31092;BME280;67728;53.122;12.776;2023-12-07T00:57:22;100757.50;;;0.16;100.00
31092;BME280;67728;53.122;12.776;2023-12-07T00:58:53;100763.53;;;0.19;100.00
31092;BME280;67728;53.122;12.776;2023-12-07T01:00:24;100765.25;;;0.19;100.00
31092;BME280;67728;53.122;12.776;2023-12-07T01:01:55;100763.50;;;0.18;100.00
31092;BME280;67728;53.122;12.776;2023-12-07T01:03:26;100766.84;;;0.15;100.00
31092;BME280;67728;53.122;12.776;2023-12-07T01:04:59;100775.38;;;0.16;100.00
31092;BME280;67728;53.122;12.776;2023-12-07T01:06:30;100774.50;;;0.15;100.00
31092;BME280;67728;53.122;12.776;2023-12-07T01:08:02;100777.03;;;0.15;100.00
31092;BME280;67728;53.122;12.776;2023-12-07T01:09:33;100780.41;;;0.14;100.00
31092;BME280;67728;53.122;12.776;2023-12-07T01:11:06;100785.50;;;0.14;100.00
31092;BME280;67728;53.122;12.776;2023-12-07T01:12:37;100786.28;;;0.12;100.00
31092;BME280;67728;53.122;12.776;2023-12-07T01:14:08;100785.50;;;0.14;100.00
31092;BME280;67728;53.122;12.776;2023-12-07T01:15:41;100788.03;;;0.13;100.00
31092;BME280;67728;53.122;12.776;2023-12-07T01:17:13;100799.00;;;0.10;100.00
31092;BME280;67728;53.122;12.776;2023-12-07T01:18:43;100796.53;;;0.13;100.00
31092;BME280;67728;53.122;12.776;2023-12-07T01:20:17;100791.38;;;0.12;100.00
31092;BME280;67728;53.122;12.776;2023-12-07T01:21:47;100799.91;;;0.12;100.00
31092;BME280;67728;53.122;12.776;2023-12-07T01:23:19;100795.69;;;0.13;100.00
31092;BME280;67728;53.122;12.776;2023-12-07T01:24:49;100805.03;;;0.14;100.00
31092;BME280;67728;53.122;12.776;2023-12-07T01:26:21;100805.03;;;0.14;100.00
31092;BME280;67728;53.122;12.776;2023-12-07T01:27:52;100806.78;;;0.15;100.00
31092;BME280;67728;53.122;12.776;2023-12-07T01:29:23;100809.38;;;0.16;100.00
31092;BME280;67728;53.122;12.776;2023-12-07T01:30:54;100811.00;;;0.14;100.00
31092;BME280;67728;53.122;12.776;2023-12-07T01:32:26;100810.09;;;0.12;100.00
31092;BME280;67728;53.122;12.776;2023-12-07T01:33:56;100813.53;;;0.13;100.00
31092;BME280;67728;53.122;12.776;2023-12-07T01:35:29;100809.22;;;0.10;100.00
31092;BME280;67728;53.122;12.776;2023-12-07T01:37:00;100808.34;;;0.10;100.00
31092;BME280;67728;53.122;12.776;2023-12-07T01:38:31;100813.41;;;0.08;100.00
31092;BME280;67728;53.122;12.776;2023-12-07T01:40:02;100814.31;;;0.10;100.00
31092;BME280;67728;53.122;12.776;2023-12-07T01:41:40;100808.34;;;0.10;100.00
31092;BME280;67728;53.122;12.776;2023-12-07T01:43:11;100807.44;;;0.08;100.00
31092;BME280;67728;53.122;12.776;2023-12-07T01:44:42;100816.88;;;0.12;100.00
31092;BME280;67728;53.122;12.776;2023-12-07T01:46:13;100816.09;;;0.14;100.00
31092;BME280;67728;53.122;12.776;2023-12-07T01:47:46;100816.06;;;0.13;100.00
31092;BME280;67728;53.122;12.776;2023-12-07T01:49:17;100816.88;;;0.12;100.00
31092;BME280;67728;53.122;12.776;2023-12-07T01:50:51;100820.31;;;0.12;100.00
31092;BME280;67728;53.122;12.776;2023-12-07T01:52:22;100821.19;;;0.13;100.00
31092;BME280;67728;53.122;12.776;2023-12-07T01:53:55;100819.50;;;0.13;100.00
31092;BME280;67728;53.122;12.776;2023-12-07T01:55:27;100824.63;;;0.15;100.00
31092;BME280;67728;53.122;12.776;2023-12-07T01:57:00;100829.69;;;0.13;100.00
31092;BME280;67728;53.122;12.776;2023-12-07T01:58:31;100838.25;;;0.15;100.00
31092;BME280;67728;53.122;12.776;2023-12-07T02:00:03;100835.69;;;0.15;100.00
31092;BME280;67728;53.122;12.776;2023-12-07T02:01:34;100832.34;;;0.16;100.00
31092;BME280;67728;53.122;12.776;2023-12-07T02:03:05;100837.44;;;0.16;100.00
31092;BME280;67728;53.122;12.776;2023-12-07T02:04:36;100842.53;;;0.16;100.00
31092;BME280;67728;53.122;12.776;2023-12-07T02:06:09;100838.28;;;0.17;100.00
31092;BME280;67728;53.122;12.776;2023-12-07T02:07:41;100838.34;;;0.18;100.00
31092;BME280;67728;53.122;12.776;2023-12-07T02:09:13;100842.56;;;0.18;100.00
31092;BME280;67728;53.122;12.776;2023-12-07T02:10:44;100832.34;;;0.16;100.00
31092;BME280;67728;53.122;12.776;2023-12-07T02:12:15;100844.25;;;0.17;100.00
31092;BME280;67728;53.122;12.776;2023-12-07T02:13:46;100844.06;;;0.11;100.00
31092;BME280;67728;53.122;12.776;2023-12-07T02:15:18;100839.06;;;0.14;100.00
31092;BME280;67728;53.122;12.776;2023-12-07T02:16:51;100845.91;;;0.15;100.00
31092;BME280;67728;53.122;12.776;2023-12-07T02:18:32;100840.91;;;0.20;100.00
31092;BME280;67728;53.122;12.776;2023-12-07T02:20:12;100829.78;;;0.16;100.00
31092;BME280;67728;53.122;12.776;2023-12-07T02:21:50;100834.91;;;0.18;100.00
31092;BME280;67728;53.122;12.776;2023-12-07T02:23:23;100840.00;;;0.16;100.00
31092;BME280;67728;53.122;12.776;2023-12-07T02:25:05;100839.03;;;0.13;100.00
31092;BME280;67728;53.122;12.776;2023-12-07T02:26:38;100845.91;;;0.15;100.00
31092;BME280;67728;53.122;12.776;2023-12-07T02:28:10;100844.31;;;0.19;100.00
31092;BME280;67728;53.122;12.776;2023-12-07T02:29:40;100843.38;;;0.17;100.00
31092;BME280;67728;53.122;12.776;2023-12-07T02:31:12;100843.47;;;0.20;100.00
31092;BME280;67728;53.122;12.776;2023-12-07T02:32:45;100848.53;;;0.18;100.00
31092;BME280;67728;53.122;12.776;2023-12-07T02:34:17;100846.84;;;0.19;100.00
31092;BME280;67728;53.122;12.776;2023-12-07T02:35:47;100851.91;;;0.17;100.00
31092;BME280;67728;53.122;12.776;2023-12-07T02:37:21;100845.94;;;0.17;100.00
31092;BME280;67728;53.122;12.776;2023-12-07T02:38:56;100848.47;;;0.17;100.00
31092;BME280;67728;53.122;12.776;2023-12-07T02:40:29;100856.13;;;0.17;100.00
31092;BME280;67728;53.122;12.776;2023-12-07T02:42:03;100847.56;;;0.15;100.00
31092;BME280;67728;53.122;12.776;2023-12-07T02:43:35;100854.34;;;0.14;100.00
31092;BME280;67728;53.122;12.776;2023-12-07T02:45:07;100859.53;;;0.17;100.00
31092;BME280;67728;53.122;12.776;2023-12-07T02:46:38;100867.28;;;0.20;100.00
31092;BME280;67728;53.122;12.776;2023-12-07T02:48:10;100868.09;;;0.19;100.00
31092;BME280;67728;53.122;12.776;2023-12-07T02:49:41;100875.72;;;0.18;100.00
31092;BME280;67728;53.122;12.776;2023-12-07T02:51:12;100864.75;;;0.20;100.00
31092;BME280;67728;53.122;12.776;2023-12-07T02:52:44;100868.09;;;0.19;100.00
31092;BME280;67728;53.122;12.776;2023-12-07T02:54:14;100871.50;;;0.20;100.00
31092;BME280;67728;53.122;12.776;2023-12-07T02:55:46;100868.94;;;0.18;100.00
31092;BME280;67728;53.122;12.776;2023-12-07T02:57:18;100862.94;;;0.16;100.00
31092;BME280;67728;53.122;12.776;2023-12-07T02:58:49;100868.09;;;0.19;100.00
31092;BME280;67728;53.122;12.776;2023-12-07T03:00:21;100868.09;;;0.19;100.00
31092;BME280;67728;53.122;12.776;2023-12-07T03:01:52;100857.91;;;0.19;100.00
31092;BME280;67728;53.122;12.776;2023-12-07T03:03:23;100861.41;;;0.23;100.00
31092;BME280;67728;53.122;12.776;2023-12-07T03:04:54;100865.53;;;0.19;100.00
31092;BME280;67728;53.122;12.776;2023-12-07T03:06:26;100865.50;;;0.18;100.00
31092;BME280;67728;53.122;12.776;2023-12-07T03:07:56;100864.72;;;0.19;100.00
31092;BME280;67728;53.122;12.776;2023-12-07T03:09:28;100870.66;;;0.19;100.00
31092;BME280;67728;53.122;12.776;2023-12-07T03:10:58;100874.06;;;0.20;100.00
31092;BME280;67728;53.122;12.776;2023-12-07T03:12:31;100873.25;;;0.21;100.00
31092;BME280;67728;53.122;12.776;2023-12-07T03:14:02;100869.03;;;0.21;100.00
31092;BME280;67728;53.122;12.776;2023-12-07T03:15:34;100869.03;;;0.21;100.00
31092;BME280;67728;53.122;12.776;2023-12-07T03:17:05;100863.09;;;0.22;100.00
31092;BME280;67728;53.122;12.776;2023-12-07T03:18:37;100866.56;;;0.24;100.00
31092;BME280;67728;53.122;12.776;2023-12-07T03:20:08;100870.75;;;0.22;100.00
31092;BME280;67728;53.122;12.776;2023-12-07T03:21:40;100868.16;;;0.21;100.00
31092;BME280;67728;53.122;12.776;2023-12-07T03:23:11;100868.09;;;0.19;100.00
31092;BME280;67728;53.122;12.776;2023-12-07T03:24:46;100877.50;;;0.20;100.00
31092;BME280;67728;53.122;12.776;2023-12-07T03:26:17;100872.38;;;0.20;100.00
31092;BME280;67728;53.122;12.776;2023-12-07T03:27:50;100879.22;;;0.21;100.00
31092;BME280;67728;53.122;12.776;2023-12-07T03:29:20;100876.63;;;0.20;100.00
31092;BME280;67728;53.122;12.776;2023-12-07T03:30:52;100877.41;;;0.17;100.00
31092;BME280;67728;53.122;12.776;2023-12-07T03:32:22;100881.13;;;0.28;100.00
31092;BME280;67728;53.122;12.776;2023-12-07T03:33:54;100875.84;;;0.22;100.00
31092;BME280;67728;53.122;12.776;2023-12-07T03:35:25;100874.06;;;0.20;100.00
31092;BME280;67728;53.122;12.776;2023-12-07T03:36:56;100876.59;;;0.18;100.00
31092;BME280;67728;53.122;12.776;2023-12-07T03:38:27;100879.13;;;0.18;100.00
31092;BME280;67728;53.122;12.776;2023-12-07T03:39:59;100886.00;;;0.21;100.00
31092;BME280;67728;53.122;12.776;2023-12-07T03:41:29;100889.38;;;0.20;100.00
31092;BME280;67728;53.122;12.776;2023-12-07T03:43:02;100886.00;;;0.21;100.00
31092;BME280;67728;53.122;12.776;2023-12-07T03:44:34;100894.56;;;0.23;100.00
31092;BME280;67728;53.122;12.776;2023-12-07T03:46:06;100896.25;;;0.22;100.00
31092;BME280;67728;53.122;12.776;2023-12-07T03:47:37;100901.31;;;0.21;100.00
31092;BME280;67728;53.122;12.776;2023-12-07T03:49:09;100891.88;;;0.18;100.00
31092;BME280;67728;53.122;12.776;2023-12-07T03:50:40;100897.03;;;0.20;100.00
31092;BME280;67728;53.122;12.776;2023-12-07T03:52:12;100892.78;;;0.20;100.00
31092;BME280;67728;53.122;12.776;2023-12-07T03:53:42;100897.09;;;0.21;100.00
31092;BME280;67728;53.122;12.776;2023-12-07T03:55:14;100894.63;;;0.24;100.00
31092;BME280;67728;53.122;12.776;2023-12-07T03:56:45;100903.09;;;0.23;100.00
31092;BME280;67728;53.122;12.776;2023-12-07T03:58:18;100897.97;;;0.23;100.00
31092;BME280;67728;53.122;12.776;2023-12-07T03:59:49;100889.44;;;0.21;100.00
31092;BME280;67728;53.122;12.776;2023-12-07T04:01:22;100885.94;;;0.19;100.00
31092;BME280;67728;53.122;12.776;2023-12-07T04:02:54;100885.94;;;0.19;100.00
31092;BME280;67728;53.122;12.776;2023-12-07T04:04:25;100893.66;;;0.21;100.00
31092;BME280;67728;53.122;12.776;2023-12-07T04:05:57;100889.34;;;0.18;100.00
31092;BME280;67728;53.122;12.776;2023-12-07T04:07:27;100892.78;;;0.20;100.00
31092;BME280;67728;53.122;12.776;2023-12-07T04:08:59;100898.75;;;0.21;100.00
31092;BME280;67728;53.122;12.776;2023-12-07T04:10:30;100887.69;;;0.20;100.00
31092;BME280;67728;53.122;12.776;2023-12-07T04:12:02;100901.31;;;0.21;100.00
31092;BME280;67728;53.122;12.776;2023-12-07T04:13:34;100898.78;;;0.22;100.00
31092;BME280;67728;53.122;12.776;2023-12-07T04:15:07;100905.72;;;0.26;100.00
31092;BME280;67728;53.122;12.776;2023-12-07T04:16:37;100904.84;;;0.26;100.00
31092;BME280;67728;53.122;12.776;2023-12-07T04:18:09;100899.72;;;0.24;100.00
31092;BME280;67728;53.122;12.776;2023-12-07T04:19:40;100901.44;;;0.25;100.00
31092;BME280;67728;53.122;12.776;2023-12-07T04:21:11;100906.53;;;0.25;100.00
31092;BME280;67728;53.122;12.776;2023-12-07T04:22:43;100909.97;;;0.27;100.00
31092;BME280;67728;53.122;12.776;2023-12-07T04:24:15;100909.88;;;0.23;100.00
31092;BME280;67728;53.122;12.776;2023-12-07T04:25:46;100914.94;;;0.21;100.00
31092;BME280;67728;53.122;12.776;2023-12-07T04:27:18;100915.84;;;0.23;100.00
31092;BME280;67728;53.122;12.776;2023-12-07T04:28:50;100915.78;;;0.22;100.00
31092;BME280;67728;53.122;12.776;2023-12-07T04:30:21;100909.84;;;0.21;100.00
31092;BME280;67728;53.122;12.776;2023-12-07T04:31:52;100912.38;;;0.21;100.00
31092;BME280;67728;53.122;12.776;2023-12-07T04:33:23;100914.97;;;0.23;100.00
31092;BME280;67728;53.122;12.776;2023-12-07T04:34:54;100913.28;;;0.23;100.00
31092;BME280;67728;53.122;12.776;2023-12-07T04:36:26;100910.66;;;0.22;100.00
31092;BME280;67728;53.122;12.776;2023-12-07T04:37:57;100916.72;;;0.24;100.00
31092;BME280;67728;53.122;12.776;2023-12-07T04:39:28;100917.41;;;0.20;100.00
31092;BME280;67728;53.122;12.776;2023-12-07T04:41:00;100907.19;;;0.18;100.00
31092;BME280;67728;53.122;12.776;2023-12-07T04:42:30;100925.22;;;0.24;100.00
31092;BME280;67728;53.122;12.776;2023-12-07T04:44:04;100920.03;;;0.21;100.00
31092;BME280;67728;53.122;12.776;2023-12-07T04:45:34;100917.63;;;0.27;100.00
31092;BME280;67728;53.122;12.776;2023-12-07T04:47:06;100913.38;;;0.26;100.00
31092;BME280;67728;53.122;12.776;2023-12-07T04:48:36;100917.69;;;0.29;100.00
31092;BME280;67728;53.122;12.776;2023-12-07T04:50:08;100921.91;;;0.27;100.00
31092;BME280;67728;53.122;12.776;2023-12-07T04:51:39;100919.25;;;0.24;100.00
31092;BME280;67728;53.122;12.776;2023-12-07T04:53:12;100919.09;;;0.19;100.00
31092;BME280;67728;53.122;12.776;2023-12-07T04:54:42;100911.41;;;0.18;100.00
31092;BME280;67728;53.122;12.776;2023-12-07T04:56:14;100914.94;;;0.21;100.00
31092;BME280;67728;53.122;12.776;2023-12-07T04:57:45;100914.06;;;0.21;100.00
31092;BME280;67728;53.122;12.776;2023-12-07T04:59:18;100915.78;;;0.22;100.00
31092;BME280;67728;53.122;12.776;2023-12-07T05:00:48;100925.13;;;0.21;100.00
31092;BME280;67728;53.122;12.776;2023-12-07T05:02:20;100918.28;;;0.20;100.00
31092;BME280;67728;53.122;12.776;2023-12-07T05:03:51;100915.78;;;0.22;100.00
31092;BME280;67728;53.122;12.776;2023-12-07T05:05:22;100918.31;;;0.22;100.00
31092;BME280;67728;53.122;12.776;2023-12-07T05:06:54;100925.25;;;0.26;100.00
31092;BME280;67728;53.122;12.776;2023-12-07T05:08:26;100923.59;;;0.26;100.00
31092;BME280;67728;53.122;12.776;2023-12-07T05:09:56;100917.56;;;0.24;100.00
31092;BME280;67728;53.122;12.776;2023-12-07T05:11:28;100921.81;;;0.24;100.00
31092;BME280;67728;53.122;12.776;2023-12-07T05:12:59;100921.03;;;0.26;100.00
31092;BME280;67728;53.122;12.776;2023-12-07T05:14:32;100921.53;;;0.15;100.00
31092;BME280;67728;53.122;12.776;2023-12-07T05:16:04;100930.28;;;0.23;100.00
31092;BME280;67728;53.122;12.776;2023-12-07T05:17:35;100927.81;;;0.26;100.00
31092;BME280;67728;53.122;12.776;2023-12-07T05:19:06;100933.78;;;0.26;100.00
31092;BME280;67728;53.122;12.776;2023-12-07T05:20:37;100929.47;;;0.24;100.00
31092;BME280;67728;53.122;12.776;2023-12-07T05:22:09;100918.97;;;0.15;100.00
31092;BME280;67728;53.122;12.776;2023-12-07T05:23:41;100929.41;;;0.22;100.00
31092;BME280;67728;53.122;12.776;2023-12-07T05:25:12;100927.81;;;0.26;100.00
31092;BME280;67728;53.122;12.776;2023-12-07T05:26:43;100932.03;;;0.25;100.00
31092;BME280;67728;53.122;12.776;2023-12-07T05:28:16;100926.03;;;0.23;100.00
31092;BME280;67728;53.122;12.776;2023-12-07T05:29:49;100928.59;;;0.23;100.00
31092;BME280;67728;53.122;12.776;2023-12-07T05:31:19;100926.69;;;0.16;100.00
31092;BME280;67728;53.122;12.776;2023-12-07T05:32:51;100931.84;;;0.19;100.00
31092;BME280;67728;53.122;12.776;2023-12-07T05:34:21;100932.00;;;0.24;100.00
31092;BME280;67728;53.122;12.776;2023-12-07T05:35:53;100939.69;;;0.25;100.00
31092;BME280;67728;53.122;12.776;2023-12-07T05:37:24;100937.09;;;0.24;100.00
31092;BME280;67728;53.122;12.776;2023-12-07T05:38:55;100945.63;;;0.24;100.00
31092;BME280;67728;53.122;12.776;2023-12-07T05:40:26;100944.75;;;0.24;100.00
31092;BME280;67728;53.122;12.776;2023-12-07T05:41:58;100949.00;;;0.23;100.00
31092;BME280;67728;53.122;12.776;2023-12-07T05:43:28;100949.81;;;0.22;100.00
31092;BME280;67728;53.122;12.776;2023-12-07T05:45:03;100948.09;;;0.21;100.00
31092;BME280;67728;53.122;12.776;2023-12-07T05:46:36;100954.09;;;0.23;100.00
31092;BME280;67728;53.122;12.776;2023-12-07T05:48:10;100946.38;;;0.22;100.00
31092;BME280;67728;53.122;12.776;2023-12-07T05:49:41;100958.41;;;0.26;100.00
31092;BME280;67728;53.122;12.776;2023-12-07T05:51:13;100959.19;;;0.23;100.00
31092;BME280;67728;53.122;12.776;2023-12-07T05:52:44;100960.06;;;0.24;100.00
31092;BME280;67728;53.122;12.776;2023-12-07T05:54:16;100960.84;;;0.21;100.00
31092;BME280;67728;53.122;12.776;2023-12-07T05:55:46;100960.00;;;0.22;100.00
31092;BME280;67728;53.122;12.776;2023-12-07T05:57:18;100963.50;;;0.24;100.00
31092;BME280;67728;53.122;12.776;2023-12-07T05:58:49;100961.56;;;0.17;100.00
31092;BME280;67728;53.122;12.776;2023-12-07T06:00:22;100962.56;;;0.22;100.00
31092;BME280;67728;53.122;12.776;2023-12-07T06:01:54;100962.66;;;0.25;100.00
31092;BME280;67728;53.122;12.776;2023-12-07T06:03:24;100966.84;;;0.23;100.00
31092;BME280;67728;53.122;12.776;2023-12-07T06:04:56;100965.16;;;0.24;100.00
31092;BME280;67728;53.122;12.776;2023-12-07T06:06:27;100964.28;;;0.23;100.00
31092;BME280;67728;53.122;12.776;2023-12-07T06:07:58;100966.84;;;0.23;100.00
31092;BME280;67728;53.122;12.776;2023-12-07T06:09:30;100961.84;;;0.26;100.00
31092;BME280;67728;53.122;12.776;2023-12-07T06:11:03;100966.84;;;0.23;100.00
31092;BME280;67728;53.122;12.776;2023-12-07T06:12:33;100970.28;;;0.25;100.00
31092;BME280;67728;53.122;12.776;2023-12-07T06:14:05;100966.09;;;0.27;100.00
31092;BME280;67728;53.122;12.776;2023-12-07T06:15:37;100970.38;;;0.27;100.00
31092;BME280;67728;53.122;12.776;2023-12-07T06:17:09;100966.03;;;0.24;100.00
31092;BME280;67728;53.122;12.776;2023-12-07T06:18:41;100969.50;;;0.26;100.00
31092;BME280;67728;53.122;12.776;2023-12-07T06:20:13;100977.03;;;0.23;100.00
31092;BME280;67728;53.122;12.776;2023-12-07T06:21:44;100981.34;;;0.24;100.00
31092;BME280;67728;53.122;12.776;2023-12-07T06:23:15;100975.41;;;0.25;100.00
31092;BME280;67728;53.122;12.776;2023-12-07T06:24:46;100987.38;;;0.28;100.00
31092;BME280;67728;53.122;12.776;2023-12-07T06:26:17;100978.00;;;0.27;100.00
31092;BME280;67728;53.122;12.776;2023-12-07T06:27:48;100983.97;;;0.27;100.00
31092;BME280;67728;53.122;12.776;2023-12-07T06:29:20;100987.16;;;0.20;100.00
31092;BME280;67728;53.122;12.776;2023-12-07T06:30:52;100982.94;;;0.21;100.00
31092;BME280;67728;53.122;12.776;2023-12-07T06:32:23;100983.78;;;0.21;100.00
31092;BME280;67728;53.122;12.776;2023-12-07T06:33:54;100985.50;;;0.22;100.00
31092;BME280;67728;53.122;12.776;2023-12-07T06:35:26;100990.59;;;0.22;100.00
31092;BME280;67728;53.122;12.776;2023-12-07T06:36:56;100989.91;;;0.26;100.00
31092;BME280;67728;53.122;12.776;2023-12-07T06:38:28;100982.06;;;0.20;100.00
31092;BME280;67728;53.122;12.776;2023-12-07T06:39:59;100992.44;;;0.26;100.00
31092;BME280;67728;53.122;12.776;2023-12-07T06:41:31;100990.59;;;0.22;100.00
31092;BME280;67728;53.122;12.776;2023-12-07T06:43:01;100995.72;;;0.22;100.00
31092;BME280;67728;53.122;12.776;2023-12-07T06:44:33;100998.34;;;0.25;100.00
31092;BME280;67728;53.122;12.776;2023-12-07T06:46:05;100994.03;;;0.23;100.00
31092;BME280;67728;53.122;12.776;2023-12-07T06:47:37;100999.09;;;0.21;100.00
31092;BME280;67728;53.122;12.776;2023-12-07T06:49:07;100991.47;;;0.23;100.00
31092;BME280;67728;53.122;12.776;2023-12-07T06:50:39;101000.00;;;0.23;100.00
31092;BME280;67728;53.122;12.776;2023-12-07T06:52:10;101001.75;;;0.24;100.00
31092;BME280;67728;53.122;12.776;2023-12-07T06:53:42;101003.47;;;0.25;100.00
31092;BME280;67728;53.122;12.776;2023-12-07T06:55:13;100996.47;;;0.20;100.00
31092;BME280;67728;53.122;12.776;2023-12-07T06:56:45;100994.91;;;0.23;100.00
31092;BME280;67728;53.122;12.776;2023-12-07T06:58:16;101000.81;;;0.22;100.00
31092;BME280;67728;53.122;12.776;2023-12-07T06:59:48;100994.84;;;0.22;100.00
31092;BME280;67728;53.122;12.776;2023-12-07T07:01:20;100993.25;;;0.25;100.00
31092;BME280;67728;53.122;12.776;2023-12-07T07:02:51;100996.78;;;0.29;100.00
31092;BME280;67728;53.122;12.776;2023-12-07T07:04:22;100993.25;;;0.25;100.00
31092;BME280;67728;53.122;12.776;2023-12-07T07:05:54;101003.56;;;0.28;100.00
31092;BME280;67728;53.122;12.776;2023-12-07T07:07:25;101001.88;;;0.29;100.00
31092;BME280;67728;53.122;12.776;2023-12-07T07:08:56;101006.13;;;0.30;100.00
31092;BME280;67728;53.122;12.776;2023-12-07T07:10:27;100997.56;;;0.28;100.00
31092;BME280;67728;53.122;12.776;2023-12-07T07:11:59;101004.56;;;0.33;100.00
31092;BME280;67728;53.122;12.776;2023-12-07T07:13:29;101007.94;;;0.32;100.00
31092;BME280;67728;53.122;12.776;2023-12-07T07:15:01;101007.88;;;0.31;100.00
31092;BME280;67728;53.122;12.776;2023-12-07T07:16:35;101007.88;;;0.31;100.00
31092;BME280;67728;53.122;12.776;2023-12-07T07:18:05;101007.00;;;0.30;100.00
31092;BME280;67728;53.122;12.776;2023-12-07T07:19:37;101016.41;;;0.31;100.00
31092;BME280;67728;53.122;12.776;2023-12-07T07:21:08;101013.84;;;0.31;100.00
31092;BME280;67728;53.122;12.776;2023-12-07T07:22:39;101009.44;;;0.26;100.00
31092;BME280;67728;53.122;12.776;2023-12-07T07:24:11;101020.63;;;0.31;100.00
31092;BME280;67728;53.122;12.776;2023-12-07T07:25:42;101012.09;;;0.30;100.00
31092;BME280;67728;53.122;12.776;2023-12-07T07:27:13;101010.50;;;0.32;100.00
31092;BME280;67728;53.122;12.776;2023-12-07T07:28:44;101011.31;;;0.31;100.00
31092;BME280;67728;53.122;12.776;2023-12-07T07:30:15;101021.41;;;0.28;100.00
31092;BME280;67728;53.122;12.776;2023-12-07T07:31:48;101022.38;;;0.32;100.00
31092;BME280;67728;53.122;12.776;2023-12-07T07:33:20;101022.22;;;0.27;100.00
31092;BME280;67728;53.122;12.776;2023-12-07T07:34:50;101018.94;;;0.31;100.00
31092;BME280;67728;53.122;12.776;2023-12-07T07:36:22;101026.63;;;0.33;100.00
31092;BME280;67728;53.122;12.776;2023-12-07T07:37:53;101029.19;;;0.33;100.00
31092;BME280;67728;53.122;12.776;2023-12-07T07:39:24;101022.50;;;0.36;100.00
31092;BME280;67728;53.122;12.776;2023-12-07T07:40:55;101022.50;;;0.36;100.00
31092;BME280;67728;53.122;12.776;2023-12-07T07:42:27;101024.16;;;0.34;100.00
31092;BME280;67728;53.122;12.776;2023-12-07T07:43:57;101016.50;;;0.34;100.00
31092;BME280;67728;53.122;12.776;2023-12-07T07:45:29;101016.53;;;0.36;100.00
31092;BME280;67728;53.122;12.776;2023-12-07T07:47:02;101014.03;;;0.37;100.00
31092;BME280;67728;53.122;12.776;2023-12-07T07:48:33;101023.47;;;0.40;100.00
31092;BME280;67728;53.122;12.776;2023-12-07T07:50:05;101019.16;;;0.37;100.00
31092;BME280;67728;53.122;12.776;2023-12-07T07:51:36;101018.63;;;0.49;100.00
31092;BME280;67728;53.122;12.776;2023-12-07T07:53:08;101010.91;;;0.46;100.00